New Richland, MN (56072)

10:27 PM CST on December 04, 2016 (GMT -0600)
Lemond Township, Steele County Rd 4 | | Change Station

Elev 1176 ft 43.97 °N, 93.37 °W | Updated 12 seconds ago

Clear
Clear
33.3 °F
Feels Like 27 °F
N
7.0
Wind Variable Wind from WSW
Gusts 11.0 mph

Today
High -- | Low -- °F
--% Chance of Precip.
Yesterday
High -- | Low -- °F
Precip. -- in
Pressure 29.82 in
Visibility 7.0 miles
Clouds Clear
Windchill 27 °F
Dew Point 32 °F
Humidity 96%
Rainfall 0.05 in
Snow Depth Not available.
7:32 AM 4:36 PM
Waxing Crescent, 28% visible
METAR KACQ 050414Z AUTO 21006KT 7SM CLR 00/00 A2982 RMK AO2
Pressure 29.82 in
Visibility 7.0 miles
Clouds Clear
Windchill 27 °F
Dew Point 32 °F
Humidity 96%
Rainfall 0.05 in
Snow Depth Not available.
7:32 AM 4:36 PM
Waxing Crescent, 28% visible
METAR KACQ 050414Z AUTO 21006KT 7SM CLR 00/00 A2982 RMK AO2

10-Day Weather Forecast

Almanac

Astronomy

Dec. 04, 2016 Rise Set
Actual Time
Civil Twilight
Nautical Twilight
Astronomical Twilight
Moon
Length of Visible Light
Length of Day
Tomorrow will be .
, % of the Moon is Illuminated

Today's Extremes

State Highs State Lows

Community

WunderPhotos

Upload Photos

1,955,759 photos uploaded!

WunderBlog® & News

Nearby

Air Quality

  Air Quality AQ Index Pollutant
Not available.

Snow Depth

Station Depth Elevation

Earthquake Activity

City Distance Mag. Time & Date
Minimum magnitude displayed is 2.5.

Coastal Water Temperatures

Place Temperature

Stations

Nearby Weather Stations

Station Location Temp. Windchill Dew Point Humidity Wind Precip. Elev Updated Type
                   

Watches & Warnings

There are currently no watches in effect.